Time;durP1;ratioP1;P1;durP2;ratioP2;P2;SDS_P1;SDS_P2;PMS_P1;PMS_P2;Temp;Humidity;BMP_temperature;BMP_pressure;BME280_temperature;BME280_humidity;BME280_pressure;Samples;Min_cycle;Max_cycle;Signal;HPM_P1;HPM_P2
2022/02/27 00:00:10;;;;;;;;;11.67;11.00;;;;;-149.00;100.00;66333.84;5101899;27;45275;-77
2022/02/27 00:02:35;;;;;;;;;11.75;10.25;;;;;-149.00;100.00;66333.84;5101985;27;47176;-76
2022/02/27 00:05:01;;;;;;;;;11.00;11.00;;;;;-149.00;100.00;66333.84;5101732;27;45303;-76
2022/02/27 00:07:26;;;;;;;;;13.00;11.25;;;;;-149.00;100.00;66333.84;5101867;27;45715;-75
2022/02/27 00:09:51;;;;;;;;;10.00;9.00;;;;;-149.00;100.00;66333.84;5101892;27;45630;-75
2022/02/27 00:12:17;;;;;;;;;13.25;13.25;;;;;-149.00;100.00;66333.84;5101764;27;45352;-76
2022/02/27 00:14:42;;;;;;;;;11.25;8.75;;;;;-149.00;100.00;66333.84;5101838;27;45332;-76
2022/02/27 00:17:07;;;;;;;;;10.33;10.33;;;;;-149.00;100.00;66333.84;5101973;27;45470;-76
2022/02/27 00:19:34;;;;;;;;;12.75;11.00;;;;;-149.00;100.00;66333.84;5101262;27;45622;-75
2022/02/27 00:21:59;;;;;;;;;12.25;10.75;;;;;-149.00;100.00;66333.84;5101639;27;46196;-75
2022/02/27 00:24:25;;;;;;;;;10.00;9.50;;;;;-149.00;100.00;66333.84;5101194;27;45346;-77
2022/02/27 00:26:50;;;;;;;;;10.75;9.00;;;;;-149.00;100.00;66333.84;5101909;27;45330;-75
2022/02/27 00:29:16;;;;;;;;;3.00;3.00;;;;;-149.00;100.00;66333.84;5101562;27;45551;-76
2022/02/27 00:31:41;;;;;;;;;14.00;10.00;;;;;-149.00;100.00;66333.84;5101659;27;46375;-76
2022/02/27 00:34:06;;;;;;;;;10.75;10.75;;;;;-149.00;100.00;66333.84;5101415;27;45184;-76
2022/02/27 00:36:32;;;;;;;;;9.25;9.00;;;;;-149.00;100.00;66333.84;5101804;27;45573;-76
2022/02/27 00:38:57;;;;;;;;;14.00;12.75;;;;;-149.00;100.00;66333.84;5101567;27;45295;-75
2022/02/27 00:41:23;;;;;;;;;12.00;9.75;;;;;-149.00;100.00;66333.84;5094061;27;46459;-75
2022/02/27 00:43:48;;;;;;;;;9.75;9.25;;;;;-149.00;100.00;66333.84;5081173;28;45288;-76
2022/02/27 00:46:14;;;;;;;;;10.25;10.25;;;;;-149.00;100.00;66333.84;5081069;28;45362;-76
2022/02/27 00:48:39;;;;;;;;;9.50;9.50;;;;;-149.00;100.00;66333.84;5080692;28;45296;-75
2022/02/27 00:51:05;;;;;;;;;11.75;10.50;;;;;-149.00;100.00;66333.84;5080757;28;45465;-76
2022/02/27 00:53:30;;;;;;;;;10.00;10.00;;;;;-149.00;100.00;66333.84;5080515;28;45308;-77
2022/02/27 00:55:56;;;;;;;;;12.75;12.75;;;;;-149.00;100.00;66333.84;5061636;28;45324;-77
2022/02/27 00:58:21;;;;;;;;;9.75;9.25;;;;;-149.00;100.00;66333.84;5080699;28;45367;-76
2022/02/27 01:00:47;;;;;;;;;11.50;9.00;;;;;-149.00;100.00;66333.84;5080522;28;46034;-76
2022/02/27 01:03:12;;;;;;;;;11.25;8.50;;;;;-149.00;100.00;66333.84;5080426;28;45245;-76
2022/02/27 01:05:37;;;;;;;;;9.25;9.00;;;;;-149.00;100.00;66333.84;5080718;28;45252;-76
2022/02/27 01:08:03;;;;;;;;;9.75;9.75;;;;;-149.00;100.00;66333.84;5080645;28;45337;-77
2022/02/27 01:10:30;;;;;;;;;12.25;9.50;;;;;-149.00;100.00;66333.84;5080320;28;45356;-76
2022/02/27 01:12:55;;;;;;;;;9.50;9.50;;;;;-149.00;100.00;66333.84;5080398;28;45335;-76
2022/02/27 01:15:20;;;;;;;;;11.75;8.50;;;;;-149.00;100.00;66333.84;5080382;28;45361;-76
2022/02/27 01:17:47;;;;;;;;;9.75;9.75;;;;;-149.00;100.00;66333.84;5080254;28;45470;-76
2022/02/27 01:20:12;;;;;;;;;5.00;5.00;;;;;-149.00;100.00;66333.84;5080055;28;46018;-76
2022/02/27 01:22:38;;;;;;;;;9.00;9.00;;;;;-149.00;100.00;66333.84;5080297;28;45307;-75
2022/02/27 01:25:09;;;;;;;;;9.25;9.25;;;;;-149.00;100.00;66333.84;5079974;28;45469;-76
2022/02/27 01:27:35;;;;;;;;;10.00;10.00;;;;;-149.00;100.00;66333.84;5062129;28;45512;-76
2022/02/27 01:30:00;;;;;;;;;11.75;9.25;;;;;-149.00;100.00;66333.84;5080053;28;45293;-76
2022/02/27 01:32:26;;;;;;;;;9.75;8.50;;;;;-149.00;100.00;66333.84;5080136;28;45351;-76
2022/02/27 01:34:52;;;;;;;;;9.00;8.00;;;;;-149.00;100.00;66333.84;5080108;28;45236;-75
2022/02/27 01:37:18;;;;;;;;;7.50;6.50;;;;;-149.00;100.00;66333.84;5079953;28;45469;-75
2022/02/27 01:39:43;;;;;;;;;7.00;7.00;;;;;-149.00;100.00;66333.84;5079741;28;45916;-76
2022/02/27 01:42:13;;;;;;;;;8.00;7.25;;;;;-149.00;100.00;66333.84;5093339;27;45476;-76
2022/02/27 01:44:40;;;;;;;;;7.50;6.50;;;;;-149.00;100.00;66333.84;5100611;27;45346;-76
2022/02/27 01:47:07;;;;;;;;;9.00;9.00;;;;;-149.00;100.00;66333.84;5100383;27;45331;-76
2022/02/27 01:49:34;;;;;;;;;6.25;6.00;;;;;-149.00;100.00;66333.84;5100072;27;46233;-76
2022/02/27 01:51:59;;;;;;;;;10.75;8.00;;;;;-149.00;100.00;66333.84;5100361;27;45392;-76
2022/02/27 01:54:25;;;;;;;;;7.25;7.25;;;;;-149.00;100.00;66333.84;5100216;27;45553;-76
2022/02/27 01:56:51;;;;;;;;;11.00;11.00;;;;;-149.00;100.00;66333.84;5100342;27;45339;-76
2022/02/27 01:59:17;;;;;;;;;10.00;9.00;;;;;-149.00;100.00;66333.84;5100124;27;45355;-76
2022/02/27 02:01:42;;;;;;;;;7.75;7.00;;;;;-149.00;100.00;66333.84;5100256;27;45295;-76
2022/02/27 02:04:08;;;;;;;;;7.00;7.00;;;;;-149.00;100.00;66333.84;5100246;27;45338;-76
2022/02/27 02:06:34;;;;;;;;;7.75;6.50;;;;;-149.00;100.00;66333.84;5100062;27;45239;-75
2022/02/27 02:08:59;;;;;;;;;7.25;7.00;;;;;-149.00;100.00;66333.84;5099962;27;45356;-75
2022/02/27 02:11:25;;;;;;;;;9.25;7.00;;;;;-149.00;100.00;66333.84;5100026;27;45252;-76
2022/02/27 02:13:51;;;;;;;;;10.25;7.50;;;;;-149.00;100.00;66333.84;5100210;27;45201;-76
2022/02/27 02:16:16;;;;;;;;;6.25;6.25;;;;;-149.00;100.00;66333.84;5100089;27;45409;-75
2022/02/27 02:18:41;;;;;;;;;7.50;6.75;;;;;-149.00;100.00;66333.84;5099619;27;46054;-76
2022/02/27 02:21:07;;;;;;;;;7.00;6.00;;;;;-149.00;100.00;66333.84;5100092;27;45244;-76
2022/02/27 02:23:33;;;;;;;;;10.50;8.50;;;;;-149.00;100.00;66333.84;5099996;27;45338;-76
2022/02/27 02:26:02;;;;;;;;;8.75;8.75;;;;;-149.00;100.00;66333.84;5099677;27;45495;-76
2022/02/27 02:28:27;;;;;;;;;7.00;7.00;;;;;-149.00;100.00;66333.84;5099860;27;46440;-75
2022/02/27 02:30:53;;;;;;;;;14.50;8.00;;;;;-149.00;100.00;66333.84;5099680;27;45292;-77
2022/02/27 02:33:18;;;;;;;;;7.25;7.00;;;;;-149.00;100.00;66333.84;5099690;27;45345;-75
2022/02/27 02:35:45;;;;;;;;;4.75;4.75;;;;;-149.00;100.00;66333.84;5099605;27;45513;-75
2022/02/27 02:38:10;;;;;;;;;7.25;6.25;;;;;-149.00;100.00;66333.84;5099655;27;45340;-74
2022/02/27 02:40:36;;;;;;;;;7.00;6.00;;;;;-149.00;100.00;66333.84;5099378;27;45244;-74
2022/02/27 02:43:02;;;;;;;;;13.25;8.25;;;;;-149.00;100.00;66333.84;5081407;27;45236;-76
2022/02/27 02:45:27;;;;;;;;;9.75;7.00;;;;;-149.00;100.00;66333.84;5099501;27;45449;-75
2022/02/27 02:47:55;;;;;;;;;6.00;4.75;;;;;-149.00;100.00;66333.84;5099271;27;45460;-76
2022/02/27 02:50:22;;;;;;;;;9.75;7.25;;;;;-149.00;100.00;66333.84;5099643;27;45447;-76
2022/02/27 02:52:48;;;;;;;;;7.00;7.00;;;;;-149.00;100.00;66333.84;5099486;27;45328;-75
2022/02/27 02:55:16;;;;;;;;;7.25;7.00;;;;;-149.00;100.00;66333.84;5099169;27;45280;-76
2022/02/27 02:57:41;;;;;;;;;7.00;6.00;;;;;-149.00;100.00;66333.84;5099662;27;45667;-75
2022/02/27 03:00:09;;;;;;;;;6.00;6.00;;;;;-149.00;100.00;66333.84;5099311;27;45256;-76
2022/02/27 03:02:36;;;;;;;;;7.25;6.00;;;;;-149.00;100.00;66333.84;5099668;27;45349;-75
2022/02/27 03:05:07;;;;;;;;;8.00;8.00;;;;;-149.00;100.00;66333.84;5098747;27;45421;-75
2022/02/27 03:07:34;;;;;;;;;9.00;8.25;;;;;-149.00;100.00;66333.84;5099274;27;46289;-76
2022/02/27 03:09:59;;;;;;;;;8.75;7.75;;;;;-149.00;100.00;66333.84;5099074;27;45353;-76
2022/02/27 03:12:25;;;;;;;;;8.75;7.00;;;;;-149.00;100.00;66333.84;5099416;27;45454;-76
2022/02/27 03:14:50;;;;;;;;;8.25;7.25;;;;;-149.00;100.00;66333.84;5099281;27;45434;-77
2022/02/27 03:17:16;;;;;;;;;6.50;6.50;;;;;-149.00;100.00;66333.84;5098076;27;45425;-77
2022/02/27 03:19:41;;;;;;;;;7.50;7.00;;;;;-149.00;100.00;66333.84;5081242;28;45359;-75
2022/02/27 03:22:06;;;;;;;;;8.50;7.00;;;;;-149.00;100.00;66333.84;5082468;28;45355;-75
2022/02/27 03:24:32;;;;;;;;;8.00;8.00;;;;;-149.00;100.00;66333.84;5081878;28;45383;-76
2022/02/27 03:26:57;;;;;;;;;6.75;6.75;;;;;-149.00;100.00;66333.84;5082051;28;46109;-76
2022/02/27 03:29:22;;;;;;;;;9.00;7.75;;;;;-149.00;100.00;66333.84;5082089;28;45348;-75
2022/02/27 03:31:48;;;;;;;;;12.75;8.00;;;;;-149.00;100.00;66333.84;5082221;28;45626;-75
2022/02/27 03:34:13;;;;;;;;;5.00;4.50;;;;;-149.00;100.00;66333.84;5063420;28;45434;-75
2022/02/27 03:36:38;;;;;;;;;7.50;7.50;;;;;-149.00;100.00;66333.84;5081944;28;46052;-76
2022/02/27 03:39:04;;;;;;;;;7.00;7.00;;;;;-149.00;100.00;66333.84;5081937;28;45272;-75
2022/02/27 03:41:29;;;;;;;;;8.00;8.00;;;;;-149.00;100.00;66333.84;5089730;27;45698;-75
2022/02/27 03:43:54;;;;;;;;;7.75;7.00;;;;;-149.00;100.00;66333.84;5102257;27;45291;-75
2022/02/27 03:46:20;;;;;;;;;6.00;4.50;;;;;-149.00;100.00;66333.84;5102307;27;45352;-75
2022/02/27 03:48:45;;;;;;;;;6.25;6.00;;;;;-149.00;100.00;66333.84;5102393;27;45254;-75
2022/02/27 03:51:10;;;;;;;;;4.00;4.00;;;;;-149.00;100.00;66333.84;5102373;27;45468;-75
2022/02/27 03:53:36;;;;;;;;;7.00;5.50;;;;;-149.00;100.00;66333.84;5102035;27;45294;-75
2022/02/27 03:56:01;;;;;;;;;4.00;4.00;;;;;-149.00;100.00;66333.84;5101945;27;46007;-76
2022/02/27 03:58:27;;;;;;;;;7.50;6.00;;;;;-149.00;100.00;66333.84;5102193;27;45289;-75
2022/02/27 04:00:52;;;;;;;;;7.00;7.00;;;;;-149.00;100.00;66333.84;5102324;27;45428;-75
2022/02/27 04:03:17;;;;;;;;;7.00;7.00;;;;;-149.00;100.00;66333.84;5101768;27;45339;-76
2022/02/27 04:05:43;;;;;;;;;7.50;7.50;;;;;-149.00;100.00;66333.84;5101935;27;46293;-77
2022/02/27 04:08:09;;;;;;;;;5.75;5.75;;;;;-149.00;100.00;66333.84;5101876;27;45374;-76
2022/02/27 04:10:34;;;;;;;;;9.00;7.00;;;;;-149.00;100.00;66333.84;5101941;27;45330;-75
2022/02/27 04:13:00;;;;;;;;;9.50;8.00;;;;;-149.00;100.00;66333.84;5101619;27;45307;-75
2022/02/27 04:15:25;;;;;;;;;7.75;7.50;;;;;-149.00;100.00;66333.84;5101746;27;46114;-75
2022/02/27 04:17:51;;;;;;;;;8.00;6.75;;;;;-149.00;100.00;66333.84;5101444;27;45362;-75
2022/02/27 04:20:16;;;;;;;;;7.75;7.75;;;;;-149.00;100.00;66333.84;5101991;27;45461;-76
2022/02/27 04:22:41;;;;;;;;;5.00;5.00;;;;;-149.00;100.00;66333.84;5101867;27;45395;-75
2022/02/27 04:25:07;;;;;;;;;7.50;6.50;;;;;-149.00;100.00;66333.84;5101214;27;45372;-75
2022/02/27 04:27:33;;;;;;;;;7.75;6.00;;;;;-149.00;100.00;66333.84;5101887;27;45295;-76
2022/02/27 04:29:58;;;;;;;;;12.25;8.50;;;;;-149.00;100.00;66333.84;5100659;27;45323;-75
2022/02/27 04:32:23;;;;;;;;;4.25;4.25;;;;;-149.00;100.00;66333.84;5101521;27;45614;-76
2022/02/27 04:34:49;;;;;;;;;7.50;4.00;;;;;-149.00;100.00;66333.84;5101408;27;45637;-76
2022/02/27 04:37:14;;;;;;;;;6.00;6.00;;;;;-149.00;100.00;66333.84;5101616;27;45337;-76
2022/02/27 04:39:40;;;;;;;;;5.75;5.75;;;;;-149.00;100.00;66333.84;5101592;27;45398;-75
2022/02/27 04:42:05;;;;;;;;;4.00;4.00;;;;;-149.00;100.00;66333.84;5088284;27;45274;-76
2022/02/27 04:44:31;;;;;;;;;6.25;6.25;;;;;-149.00;100.00;66333.84;5080955;28;45353;-76
2022/02/27 04:46:56;;;;;;;;;8.25;8.25;;;;;-149.00;100.00;66333.84;5081064;28;45224;-75
2022/02/27 04:49:21;;;;;;;;;8.00;7.00;;;;;-149.00;100.00;66333.84;5080761;28;45289;-76
2022/02/27 04:51:47;;;;;;;;;5.25;5.25;;;;;-149.00;100.00;66333.84;5080935;28;45453;-76
2022/02/27 04:54:13;;;;;;;;;6.75;5.50;;;;;-149.00;100.00;66333.84;5080471;28;45546;-76
2022/02/27 04:56:38;;;;;;;;;7.25;7.25;;;;;-149.00;100.00;66333.84;5080830;28;45345;-76
2022/02/27 04:59:04;;;;;;;;;7.50;3.75;;;;;-149.00;100.00;66333.84;5080916;28;45304;-76
2022/02/27 05:01:29;;;;;;;;;8.75;6.50;;;;;-149.00;100.00;66333.84;5080674;28;45449;-76
2022/02/27 05:03:54;;;;;;;;;8.00;5.75;;;;;-149.00;100.00;66333.84;5080410;28;46579;-76
2022/02/27 05:06:20;;;;;;;;;4.25;4.25;;;;;-149.00;100.00;66333.84;5080644;28;45666;-76
2022/02/27 05:08:45;;;;;;;;;5.75;3.50;;;;;-149.00;100.00;66333.84;5080774;28;45338;-75
2022/02/27 05:11:11;;;;;;;;;5.50;5.50;;;;;-149.00;100.00;66333.84;5080336;28;45508;-75
2022/02/27 05:13:36;;;;;;;;;4.75;4.75;;;;;-149.00;100.00;66333.84;5080297;28;46416;-76
2022/02/27 05:16:01;;;;;;;;;5.50;5.50;;;;;-149.00;100.00;66333.84;5080638;28;45382;-76
2022/02/27 05:18:27;;;;;;;;;5.00;4.50;;;;;-149.00;100.00;66333.84;5080241;28;45329;-76
2022/02/27 05:20:52;;;;;;;;;7.25;5.75;;;;;-149.00;100.00;66333.84;5080438;28;45437;-76
2022/02/27 05:23:17;;;;;;;;;4.75;4.75;;;;;-149.00;100.00;66333.84;5080176;28;45507;-76
2022/02/27 05:25:43;;;;;;;;;4.50;3.50;;;;;-149.00;100.00;66333.84;5080178;28;45337;-76
2022/02/27 05:28:08;;;;;;;;;5.25;5.25;;;;;-149.00;100.00;66333.84;5080560;28;45346;-76
2022/02/27 05:30:34;;;;;;;;;7.00;6.75;;;;;-149.00;100.00;66333.84;5080150;28;45287;-76
2022/02/27 05:32:59;;;;;;;;;6.25;6.25;;;;;-149.00;100.00;66333.84;5079923;28;45367;-76
2022/02/27 05:35:24;;;;;;;;;7.00;7.00;;;;;-149.00;100.00;66333.84;5080068;28;45252;-76
2022/02/27 05:37:50;;;;;;;;;8.00;8.00;;;;;-149.00;100.00;66333.84;5080172;28;45307;-75
2022/02/27 05:40:15;;;;;;;;;6.25;6.25;;;;;-149.00;100.00;66333.84;5079999;28;45299;-76
2022/02/27 05:42:41;;;;;;;;;6.00;5.00;;;;;-149.00;100.00;66333.84;5097313;27;45480;-75
2022/02/27 05:45:08;;;;;;;;;10.00;6.00;;;;;-149.00;100.00;66333.84;5100425;27;45248;-76
2022/02/27 05:47:35;;;;;;;;;9.75;7.00;;;;;-149.00;100.00;66333.84;5100466;27;45376;-76
2022/02/27 05:50:00;;;;;;;;;7.00;5.00;;;;;-149.00;100.00;66333.84;5099990;27;45341;-76
2022/02/27 05:52:25;;;;;;;;;6.00;6.00;;;;;-149.00;100.00;66333.84;5100060;27;46283;-76
2022/02/27 05:54:51;;;;;;;;;6.00;6.00;;;;;-149.00;100.00;66333.84;5081630;27;45343;-76
2022/02/27 05:57:16;;;;;;;;;6.00;6.00;;;;;-149.00;100.00;66333.84;5100375;27;45370;-76
2022/02/27 05:59:42;;;;;;;;;8.00;8.00;;;;;-149.00;100.00;66333.84;5100286;27;45319;-76
2022/02/27 06:02:07;;;;;;;;;6.50;6.50;;;;;-149.00;100.00;66333.84;5100068;27;46110;-76
2022/02/27 06:04:33;;;;;;;;;12.25;8.00;;;;;-149.00;100.00;66333.84;5100081;27;45239;-76
2022/02/27 06:07:00;;;;;;;;;7.50;6.00;;;;;-149.00;100.00;66333.84;5100289;27;45291;-75
2022/02/27 06:09:25;;;;;;;;;7.75;6.75;;;;;-149.00;100.00;66333.84;5099853;27;45327;-75
2022/02/27 06:11:51;;;;;;;;;7.00;6.00;;;;;-149.00;100.00;66333.84;5099895;27;45478;-76
2022/02/27 06:14:16;;;;;;;;;11.75;8.25;;;;;-149.00;100.00;66333.84;5100007;27;45287;-75
2022/02/27 06:16:42;;;;;;;;;4.00;4.00;;;;;-149.00;100.00;66333.84;5100226;27;45311;-76
2022/02/27 06:19:07;;;;;;;;;7.25;7.25;;;;;-149.00;100.00;66333.84;5099618;27;45527;-75
2022/02/27 06:21:33;;;;;;;;;10.25;6.25;;;;;-149.00;100.00;66333.84;5099309;27;46353;-75
2022/02/27 06:23:58;;;;;;;;;10.00;8.00;;;;;-149.00;100.00;66333.84;5099199;27;45433;-77
2022/02/27 06:26:24;;;;;;;;;7.75;7.25;;;;;-149.00;100.00;66333.84;5101022;27;45433;-76
2022/02/27 06:28:49;;;;;;;;;8.00;6.75;;;;;-149.00;100.00;66333.84;5120649;27;45685;-75
2022/02/27 06:31:15;;;;;;;;;7.25;4.75;;;;;-149.00;100.00;66333.84;5098719;27;45428;-76
2022/02/27 06:33:40;;;;;;;;;11.00;6.75;;;;;-149.00;100.00;66333.84;5080848;27;45392;-76
2022/02/27 06:36:06;;;;;;;;;5.75;5.25;;;;;-149.00;100.00;66333.84;5119327;27;45528;-76
2022/02/27 06:38:31;;;;;;;;;3.50;3.50;;;;;-149.00;100.00;66333.84;5101779;27;45512;-78
2022/02/27 06:40:57;;;;;;;;;10.00;7.25;;;;;-149.00;100.00;66333.84;5119985;27;46214;-77
2022/02/27 06:43:22;;;;;;;;;6.50;6.50;;;;;-149.00;100.00;66333.84;5120590;27;45366;-77
2022/02/27 06:45:48;;;;;;;;;5.75;4.00;;;;;-149.00;100.00;66333.84;5120506;27;45258;-77
2022/02/27 06:48:14;;;;;;;;;6.00;5.75;;;;;-149.00;100.00;66333.84;5120125;27;45357;-76
2022/02/27 06:50:39;;;;;;;;;6.00;4.50;;;;;-149.00;100.00;66333.84;5120212;27;45329;-77
2022/02/27 06:53:05;;;;;;;;;5.00;5.00;;;;;-149.00;100.00;66333.84;5120657;27;45277;-77
2022/02/27 06:55:30;;;;;;;;;6.50;5.50;;;;;-149.00;100.00;66333.84;5123924;27;45301;-77
2022/02/27 06:57:55;;;;;;;;;6.00;6.00;;;;;-149.00;100.00;66333.84;5123827;27;45486;-76
2022/02/27 07:00:21;;;;;;;;;5.00;5.00;;;;;-149.00;100.00;66333.84;5123689;27;45407;-79
2022/02/27 07:02:47;;;;;;;;;5.50;5.50;;;;;-149.00;100.00;66333.84;5123747;27;45208;-78
2022/02/27 07:05:13;;;;;;;;;6.00;6.00;;;;;-149.00;100.00;66333.84;5123700;27;45547;-77
2022/02/27 07:07:39;;;;;;;;;7.00;7.00;;;;;-149.00;100.00;66333.84;5123591;27;45349;-78
2022/02/27 07:10:06;;;;;;;;;8.00;6.75;;;;;-149.00;100.00;66333.84;5123339;27;45347;-80
2022/02/27 07:12:33;;;;;;;;;5.75;5.75;;;;;-149.00;100.00;66333.84;5109163;27;45486;-81
2022/02/27 07:14:59;;;;;;;;;6.25;6.00;;;;;-149.00;100.00;66333.84;5102532;27;45496;-79
2022/02/27 07:17:25;;;;;;;;;7.00;6.75;;;;;-149.00;100.00;66333.84;5108008;27;45291;-80
2022/02/27 07:19:51;;;;;;;;;6.25;3.75;;;;;-149.00;100.00;66333.84;5102701;27;45274;-79
2022/02/27 07:22:17;;;;;;;;;8.25;6.00;;;;;-149.00;100.00;66333.84;5102943;27;45791;-78
2022/02/27 07:24:43;;;;;;;;;10.00;7.50;;;;;-149.00;100.00;66333.84;5102544;27;45385;-79
2022/02/27 07:27:08;;;;;;;;;8.50;7.00;;;;;-149.00;100.00;66333.84;5111240;27;45446;-79
2022/02/27 07:29:34;;;;;;;;;6.00;6.00;;;;;-149.00;100.00;66333.84;5106746;27;45411;-80
2022/02/27 07:32:00;;;;;;;;;5.50;5.50;;;;;-149.00;100.00;66333.84;5111163;27;45385;-79
2022/02/27 07:34:26;;;;;;;;;11.00;7.50;;;;;-149.00;100.00;66333.84;5108582;27;45492;-81
2022/02/27 07:36:52;;;;;;;;;4.50;4.50;;;;;-149.00;100.00;66333.84;5096901;27;45600;-81
2022/02/27 07:39:21;;;;;;;;;2.50;2.50;;;;;-149.00;100.00;66333.84;5100562;27;45402;-78
2022/02/27 07:41:46;;;;;;;;;7.25;6.00;;;;;-149.00;100.00;66333.84;5080339;27;45323;-81
2022/02/27 07:44:15;;;;;;;;;6.25;6.25;;;;;-149.00;100.00;66333.84;5099806;27;45290;-81
2022/02/27 07:46:41;;;;;;;;;6.25;6.25;;;;;-149.00;100.00;66333.84;5098890;27;45538;-79
2022/02/27 07:49:07;;;;;;;;;6.00;6.00;;;;;-149.00;100.00;66333.84;5099539;27;46314;-79
2022/02/27 07:51:33;;;;;;;;;21.50;18.50;;;;;-149.00;100.00;66333.84;5102159;27;45424;-80
2022/02/27 07:53:58;;;;;;;;;7.75;7.00;;;;;-149.00;100.00;66333.84;5100599;27;45265;-80
2022/02/27 07:56:23;;;;;;;;;5.75;5.75;;;;;-149.00;100.00;66333.84;5100810;27;45421;-79
2022/02/27 07:58:49;;;;;;;;;6.00;6.00;;;;;-149.00;100.00;66333.84;5100363;27;45352;-80
2022/02/27 08:01:15;;;;;;;;;6.50;6.50;;;;;-149.00;100.00;66333.84;5098777;27;45518;-81
2022/02/27 08:03:40;;;;;;;;;5.00;5.00;;;;;-149.00;100.00;66333.84;5101925;27;45291;-79
2022/02/27 08:06:06;;;;;;;;;4.00;4.00;;;;;-149.00;100.00;66333.84;5102067;27;45605;-80
2022/02/27 08:08:33;;;;;;;;;6.00;6.00;;;;;-149.00;100.00;66333.84;5102038;27;46229;-79
2022/02/27 08:10:59;;;;;;;;;7.25;6.00;;;;;-149.00;100.00;66333.84;5101624;27;45504;-77
2022/02/27 08:13:24;;;;;;;;;4.75;4.50;;;;;-149.00;100.00;66333.84;5101892;27;45350;-77
2022/02/27 08:15:50;;;;;;;;;19.00;18.50;;;;;-149.00;100.00;66333.84;5100667;27;45710;-79
2022/02/27 08:18:16;;;;;;;;;7.00;3.00;;;;;-149.00;100.00;66333.84;5101209;27;46064;-79
2022/02/27 08:20:42;;;;;;;;;3.00;3.00;;;;;-149.00;100.00;66333.84;5099578;27;45469;-79
2022/02/27 08:23:07;;;;;;;;;4.00;4.00;;;;;-149.00;100.00;66333.84;5099729;27;45426;-79
2022/02/27 08:25:33;;;;;;;;;9.75;6.00;;;;;-149.00;100.00;66333.84;5081763;27;45391;-78
2022/02/27 08:27:58;;;;;;;;;5.00;5.00;;;;;-149.00;100.00;66333.84;5100832;27;45405;-79
2022/02/27 08:30:23;;;;;;;;;6.00;5.00;;;;;-149.00;100.00;66333.84;5107078;27;45240;-79
2022/02/27 08:32:50;;;;;;;;;6.00;6.00;;;;;-149.00;100.00;66333.84;5122969;27;45900;-79
2022/02/27 08:35:16;;;;;;;;;4.00;4.00;;;;;-149.00;100.00;66333.84;5123699;27;45678;-78
2022/02/27 08:37:42;;;;;;;;;5.50;3.75;;;;;-149.00;100.00;66333.84;5122307;27;45595;-78
2022/02/27 08:40:08;;;;;;;;;5.00;4.00;;;;;-149.00;100.00;66333.84;5122307;27;45176;-78
2022/02/27 08:42:33;;;;;;;;;6.25;4.00;;;;;-149.00;100.00;66333.84;5123159;27;45567;-77
2022/02/27 08:44:59;;;;;;;;;2.00;2.00;;;;;-149.00;100.00;66333.84;5122029;27;45430;-77
2022/02/27 08:47:24;;;;;;;;;3.00;3.00;;;;;-149.00;100.00;66333.84;5122414;27;45583;-78
2022/02/27 08:49:50;;;;;;;;;4.00;4.00;;;;;-149.00;100.00;66333.84;5122048;27;45381;-78
2022/02/27 08:52:15;;;;;;;;;5.00;3.33;;;;;-149.00;100.00;66333.84;5112435;27;45360;-77
2022/02/27 08:54:40;;;;;;;;;3.67;3.67;;;;;-149.00;100.00;66333.84;5101375;27;45422;-77
2022/02/27 08:57:06;;;;;;;;;4.00;4.00;;;;;-149.00;100.00;66333.84;5101395;27;45674;-77
2022/02/27 08:59:31;;;;;;;;;4.33;4.33;;;;;-149.00;100.00;66333.84;5101328;27;45491;-78
2022/02/27 09:01:57;;;;;;;;;4.00;4.00;;;;;-149.00;100.00;66333.84;5101154;27;45393;-78
2022/02/27 09:04:22;;;;;;;;;4.25;4.00;;;;;-149.00;100.00;66333.84;5099913;27;45457;-77
2022/02/27 09:06:48;;;;;;;;;4.67;3.33;;;;;-149.00;100.00;66333.84;5100953;27;45447;-77
2022/02/27 09:09:15;;;;;;;;;7.33;3.67;;;;;-149.00;100.00;66333.84;5100772;27;45296;-77
2022/02/27 09:11:41;;;;;;;;;3.67;3.67;;;;;-149.00;100.00;66333.84;5100581;27;45225;-77
2022/02/27 09:14:06;;;;;;;;;2.00;2.00;;;;;-149.00;100.00;66333.84;5100753;27;45285;-77
2022/02/27 09:16:31;;;;;;;;;4.00;3.00;;;;;-149.00;100.00;66333.84;5100120;27;45440;-76
2022/02/27 09:18:57;;;;;;;;;5.33;5.33;;;;;-149.00;100.00;66333.84;5099577;27;45339;-77
2022/02/27 09:21:22;;;;;;;;;4.00;4.00;;;;;-149.00;100.00;66333.84;5101292;27;45455;-77
2022/02/27 09:23:47;;;;;;;;;6.67;6.67;;;;;-149.00;100.00;66333.84;5101368;27;45492;-77
2022/02/27 09:26:13;;;;;;;;;4.00;4.00;;;;;-149.00;100.00;66333.84;5100717;27;46276;-77
2022/02/27 09:28:38;;;;;;;;;4.00;3.00;;;;;-149.00;100.00;66333.84;5082190;27;45349;-77
2022/02/27 09:31:04;;;;;;;;;6.33;4.00;;;;;-149.00;100.00;66333.84;5098674;27;45993;-77
2022/02/27 09:33:30;;;;;;;;;3.67;3.00;;;;;-149.00;100.00;66333.84;5097872;27;45374;-78
2022/02/27 09:35:56;;;;;;;;;2.33;2.33;;;;;-149.00;100.00;66333.84;5120121;27;45507;-80
2022/02/27 09:38:21;;;;;;;;;2.67;2.67;;;;;-149.00;100.00;66333.84;5121301;27;45479;-80
2022/02/27 09:40:50;;;;;;;;;4.33;3.33;;;;;-149.00;100.00;66333.84;5120752;27;45856;-79
2022/02/27 09:43:19;;;;;;;;;3.00;3.00;;;;;-149.00;100.00;66333.84;5101317;27;45480;-78
2022/02/27 09:45:47;;;;;;;;;4.00;4.00;;;;;-149.00;100.00;66333.84;5099049;27;45543;-78
2022/02/27 09:48:13;;;;;;;;;4.33;4.33;;;;;-149.00;100.00;66333.84;5122149;27;45282;-80
2022/02/27 09:50:40;;;;;;;;;4.00;4.00;;;;;-149.00;100.00;66333.84;5121295;27;45255;-81
2022/02/27 09:53:09;;;;;;;;;4.67;4.67;;;;;-149.00;100.00;66333.84;5109124;27;45386;-81
2022/02/27 09:55:35;;;;;;;;;3.00;3.00;;;;;-149.00;100.00;66333.84;5105576;27;46337;-79
2022/02/27 09:58:01;;;;;;;;;2.33;2.33;;;;;-149.00;100.00;66333.84;5122536;27;45472;-80
2022/02/27 10:00:27;;;;;;;;;3.67;3.67;;;;;-149.00;100.00;66333.84;5126213;27;45303;-80
2022/02/27 10:03:06;;;;;;;;;6.67;3.33;;;;;-149.00;100.00;66333.84;5127274;27;45220;-79
2022/02/27 10:05:36;;;;;;;;;2.67;2.67;;;;;-149.00;100.00;66333.84;5128250;27;45529;-78
2022/02/27 10:08:03;;;;;;;;;4.00;4.00;;;;;-149.00;100.00;66333.84;5126115;27;45374;-79
2022/02/27 10:10:29;;;;;;;;;3.00;3.00;;;;;-149.00;100.00;66333.84;5121244;27;45291;-79
2022/02/27 10:12:55;;;;;;;;;3.00;3.00;;;;;-149.00;100.00;66333.84;5125383;27;45243;-79
2022/02/27 10:15:21;;;;;;;;;3.67;3.67;;;;;-149.00;100.00;66333.84;5123355;27;45229;-79
2022/02/27 10:17:51;;;;;;;;;6.33;5.67;;;;;-149.00;100.00;66333.84;5116448;27;45219;-79
2022/02/27 10:20:18;;;;;;;;;3.00;3.00;;;;;-149.00;100.00;66333.84;5105734;27;45363;-77
2022/02/27 10:22:58;;;;;;;;;4.33;4.33;;;;;-149.00;100.00;66333.84;5107511;27;45258;-79
2022/02/27 10:25:28;;;;;;;;;4.67;4.67;;;;;-149.00;100.00;66333.84;5102568;27;45437;-78
2022/02/27 10:27:57;;;;;;;;;6.00;4.00;;;;;-149.00;100.00;66333.84;5103858;27;45261;-77
2022/02/27 10:30:30;;;;;;;;;3.67;3.67;;;;;-149.00;100.00;66333.84;5103993;27;45319;-79
2022/02/27 10:33:00;;;;;;;;;3.33;3.33;;;;;-149.00;100.00;66333.84;5103533;27;45486;-77
2022/02/27 10:35:58;;;;;;;;;6.00;5.00;;;;;-149.00;100.00;66333.84;5094107;27;46354;-78
2022/02/27 10:38:44;;;;;;;;;5.00;4.00;;;;;-149.00;100.00;66333.84;5044997;27;45497;-77
2022/02/27 10:41:12;;;;;;;;;9.00;8.00;;;;;-149.00;100.00;66333.84;5101487;27;45469;-79
2022/02/27 10:43:45;;;;;;;;;4.00;3.00;;;;;-149.00;100.00;66333.84;5101558;27;45343;-79
2022/02/27 10:46:11;;;;;;;;;4.00;4.00;;;;;-149.00;100.00;66333.84;5100166;27;46202;-78
2022/02/27 10:48:37;;;;;;;;;4.33;4.33;;;;;-149.00;100.00;66333.84;5101352;27;45339;-78
2022/02/27 10:51:04;;;;;;;;;4.00;4.00;;;;;-149.00;100.00;66333.84;5101754;27;45436;-78
2022/02/27 10:53:35;;;;;;;;;4.67;3.67;;;;;-149.00;100.00;66333.84;5101754;27;45386;-78
2022/02/27 10:56:04;;;;;;;;;2.00;1.00;;;;;-149.00;100.00;66333.84;5104022;27;46012;-78
2022/02/27 10:58:45;;;;;;;;;4.33;4.33;;;;;-149.00;100.00;66333.84;5105540;27;45525;-77
2022/02/27 11:01:19;;;;;;;;;5.67;5.00;;;;;-149.00;100.00;66333.84;5112021;27;45416;-78